Time;durP1;ratioP1;P1;durP2;ratioP2;P2;SDS_P1;SDS_P2;PMS_P1;PMS_P2;Temp;Humidity;BMP_temperature;BMP_pressure;BME280_temperature;BME280_humidity;BME280_pressure;Samples;Min_cycle;Max_cycle;Signal;HPM_P1;HPM_P2
2022/08/20 00:00:44;;;;;;;;;;;17.70;99.90;;;;;;6220964;23;19943;-79
2022/08/20 00:03:13;;;;;;;;;;;17.60;99.90;;;;;;6220176;23;19922;-79
2022/08/20 00:05:40;;;;;;;;;;;17.60;99.90;;;;;;6245610;23;20050;-79
2022/08/20 00:08:06;;;;;;;;;;;17.60;99.90;;;;;;6220689;23;20246;-77
2022/08/20 00:10:33;;;;;;;;;;;17.60;99.90;;;;;;6220315;23;20235;-77
2022/08/20 00:13:00;;;;;;;;;;;17.50;99.90;;;;;;6219697;23;19915;-78
2022/08/20 00:15:28;;;;;;;;;;;17.50;99.90;;;;;;6219787;23;19922;-77
2022/08/20 00:17:54;;;;;;;;;;;17.50;99.90;;;;;;6245298;23;19973;-78
2022/08/20 00:20:21;;;;;;;;;;;17.50;99.90;;;;;;6220225;23;19994;-77
2022/08/20 00:22:46;;;;;;;;;;;17.50;99.90;;;;;;6245045;22;19915;-79
2022/08/20 00:25:12;;;;;;;;;;;17.40;99.90;;;;;;6245695;23;19927;-78
2022/08/20 00:27:38;;;;;;;;;;;17.40;99.90;;;;;;6219751;23;20250;-77
2022/08/20 00:30:05;;;;;;;;;;;17.40;99.90;;;;;;6245549;23;19916;-78
2022/08/20 00:32:31;;;;;;;;;;;17.40;99.90;;;;;;6245437;22;19923;-77
2022/08/20 00:34:57;;;;;;;;;;;17.30;99.90;;;;;;6220139;23;19915;-77
2022/08/20 00:37:22;;;;;;;;;;;17.40;99.90;;;;;;6220352;23;19923;-78
2022/08/20 00:39:48;;;;;;;;;;;17.20;99.90;;;;;;6219584;23;19948;-76
2022/08/20 00:42:13;;;;;;;;;;;17.20;99.90;;;;;;6245899;22;20270;-76
2022/08/20 00:44:45;;;;;;;;;;;17.20;99.90;;;;;;6246341;23;19919;-76
2022/08/20 00:47:11;;;;;;;;;;;17.20;99.90;;;;;;6247113;23;19922;-76
2022/08/20 00:49:37;;;;;;;;;;;17.20;99.90;;;;;;6222107;23;19992;-76
2022/08/20 00:52:08;;;;;;;;;;;17.20;99.90;;;;;;6246436;22;20319;-78
2022/08/20 00:54:37;;;;;;;;;;;17.20;99.90;;;;;;6221713;23;20041;-77
2022/08/20 00:57:06;;;;;;;;;;;17.20;99.90;;;;;;6247490;23;19995;-78
2022/08/20 00:59:33;;;;;;;;;;;17.20;99.90;;;;;;6221685;23;19919;-78
2022/08/20 01:01:59;;;;;;;;;;;17.10;99.90;;;;;;6222002;22;19985;-77
2022/08/20 01:04:26;;;;;;;;;;;17.10;99.90;;;;;;6246845;23;19920;-77
2022/08/20 01:06:51;;;;;;;;;;;17.10;99.90;;;;;;6246763;23;19938;-78
2022/08/20 01:09:17;;;;;;;;;;;17.00;99.90;;;;;;6196357;23;20326;-77
2022/08/20 01:11:43;;;;;;;;;;;17.00;99.90;;;;;;6221590;23;19920;-77
2022/08/20 01:16:57;;;;;;;;;;;17.00;99.90;;;;;;6247092;23;19982;-78
2022/08/20 01:19:32;;;;;;;;;;;17.00;99.90;;;;;;6221813;23;19923;-78
2022/08/20 01:22:01;;;;;;;;;;;17.00;99.90;;;;;;6221379;22;19922;-77
2022/08/20 01:24:31;;;;;;;;;;;17.00;99.90;;;;;;6221847;23;19927;-79
2022/08/20 01:27:00;;;;;;;;;;;17.10;99.90;;;;;;6246712;23;19969;-78
2022/08/20 01:29:28;;;;;;;;;;;17.10;99.90;;;;;;6221338;23;19915;-78
2022/08/20 01:31:59;;;;;;;;;;;17.10;99.90;;;;;;6221523;22;19919;-76
2022/08/20 01:34:26;;;;;;;;;;;17.10;99.90;;;;;;6221801;23;20250;-78
2022/08/20 01:36:53;;;;;;;;;;;17.10;99.90;;;;;;6246525;23;19986;-77
2022/08/20 01:39:23;;;;;;;;;;;17.10;99.90;;;;;;6221123;23;19947;-76
2022/08/20 01:42:07;;;;;;;;;;;17.10;99.90;;;;;;6220908;22;20003;-78
2022/08/20 01:44:34;;;;;;;;;;;17.10;99.90;;;;;;6246684;23;20297;-77
2022/08/20 01:47:14;;;;;;;;;;;17.10;99.90;;;;;;6246436;23;20297;-78
2022/08/20 01:49:44;;;;;;;;;;;17.10;99.90;;;;;;6246554;23;20273;-78
2022/08/20 01:52:13;;;;;;;;;;;17.10;99.90;;;;;;6246283;22;19969;-76
2022/08/20 01:54:39;;;;;;;;;;;17.10;99.90;;;;;;6221611;23;20339;-78
2022/08/20 01:57:09;;;;;;;;;;;17.10;99.90;;;;;;6221130;23;19957;-79
2022/08/20 01:59:35;;;;;;;;;;;17.10;99.90;;;;;;6246363;23;19939;-78
2022/08/20 02:02:01;;;;;;;;;;;17.10;99.90;;;;;;6245921;22;20337;-78
2022/08/20 02:04:27;;;;;;;;;;;17.10;99.90;;;;;;6221066;23;19950;-78
2022/08/20 02:06:55;;;;;;;;;;;17.10;99.90;;;;;;6220953;23;19961;-78
2022/08/20 02:09:20;;;;;;;;;;;17.10;99.90;;;;;;6220957;23;19990;-76
2022/08/20 02:11:46;;;;;;;;;;;17.00;99.90;;;;;;6246641;23;19916;-77
2022/08/20 02:14:13;;;;;;;;;;;17.00;99.90;;;;;;6221079;23;19919;-77
2022/08/20 02:16:40;;;;;;;;;;;17.00;99.90;;;;;;6220518;23;20260;-77
2022/08/20 02:19:11;;;;;;;;;;;16.90;99.90;;;;;;6220991;23;19990;-77
2022/08/20 02:21:39;;;;;;;;;;;16.90;99.90;;;;;;6221486;23;19919;-76
2022/08/20 02:24:05;;;;;;;;;;;16.90;99.90;;;;;;6221074;23;20299;-78
2022/08/20 02:26:31;;;;;;;;;;;16.90;99.90;;;;;;6221435;23;19919;-78
2022/08/20 02:28:58;;;;;;;;;;;16.80;99.90;;;;;;6246396;23;19994;-76
2022/08/20 02:31:23;;;;;;;;;;;16.80;99.90;;;;;;6220811;23;20041;-77
2022/08/20 02:33:52;;;;;;;;;;;16.70;99.90;;;;;;6220734;23;19915;-75
2022/08/20 02:36:18;;;;;;;;;;;16.70;99.90;;;;;;6220815;23;19915;-78
2022/08/20 02:38:45;;;;;;;;;;;16.70;99.90;;;;;;6245730;23;20346;-76
2022/08/20 02:41:11;;;;;;;;;;;16.60;99.90;;;;;;6220025;23;20293;-76
2022/08/20 02:43:37;;;;;;;;;;;16.60;99.90;;;;;;6219974;23;19916;-78
2022/08/20 02:46:03;;;;;;;;;;;16.50;99.90;;;;;;6220963;23;20310;-78
2022/08/20 02:48:28;;;;;;;;;;;16.50;99.90;;;;;;6221068;23;19916;-77
2022/08/20 02:51:00;;;;;;;;;;;16.40;99.90;;;;;;6220543;23;19915;-76
2022/08/20 02:53:27;;;;;;;;;;;16.40;99.90;;;;;;6246592;22;19919;-77
2022/08/20 02:55:53;;;;;;;;;;;16.40;99.90;;;;;;6221289;23;20289;-76
2022/08/20 02:58:18;;;;;;;;;;;16.30;99.90;;;;;;6202629;22;19900;-77
2022/08/20 03:00:44;;;;;;;;;;;16.30;99.90;;;;;;6249463;22;19924;-76
2022/08/20 03:03:11;;;;;;;;;;;16.20;99.90;;;;;;6274693;22;19943;-77
2022/08/20 03:05:40;;;;;;;;;;;16.20;99.90;;;;;;6249202;23;19926;-76
2022/08/20 03:08:08;;;;;;;;;;;16.10;99.90;;;;;;6249376;22;19927;-76
2022/08/20 03:10:34;;;;;;;;;;;16.00;99.90;;;;;;6226452;23;19990;-77
2022/08/20 03:13:01;;;;;;;;;;;16.10;99.90;;;;;;6220185;23;19916;-78
2022/08/20 03:15:31;;;;;;;;;;;15.90;99.90;;;;;;6220665;23;20306;-76
2022/08/20 03:17:56;;;;;;;;;;;15.90;99.90;;;;;;6195392;23;19920;-78
2022/08/20 03:20:23;;;;;;;;;;;15.80;99.90;;;;;;6220737;23;19923;-78
2022/08/20 03:22:48;;;;;;;;;;;15.80;99.90;;;;;;6245194;22;20319;-76
2022/08/20 03:25:14;;;;;;;;;;;15.70;99.90;;;;;;6244650;23;19930;-78
2022/08/20 03:27:41;;;;;;;;;;;15.60;99.90;;;;;;6245236;23;19915;-76
2022/08/20 03:30:08;;;;;;;;;;;15.60;99.90;;;;;;6245705;23;20250;-76
2022/08/20 03:32:34;;;;;;;;;;;15.50;99.90;;;;;;6220297;23;19920;-78
2022/08/20 03:34:59;;;;;;;;;;;15.50;99.90;;;;;;6245920;23;19922;-78
2022/08/20 03:37:28;;;;;;;;;;;15.40;99.90;;;;;;6220617;23;20326;-79
2022/08/20 03:39:54;;;;;;;;;;;15.40;99.90;;;;;;6220039;23;19925;-79
2022/08/20 03:42:19;;;;;;;;;;;15.30;99.90;;;;;;6220396;22;19998;-78
2022/08/20 03:44:47;;;;;;;;;;;15.30;99.90;;;;;;6245714;23;19915;-77
2022/08/20 03:47:13;;;;;;;;;;;15.20;99.90;;;;;;6220245;23;19916;-78
2022/08/20 03:49:38;;;;;;;;;;;15.20;99.90;;;;;;6220420;23;20223;-76
2022/08/20 03:52:04;;;;;;;;;;;15.20;99.90;;;;;;6244781;22;20319;-77
2022/08/20 03:54:30;;;;;;;;;;;15.10;99.90;;;;;;6220087;23;19986;-78
2022/08/20 03:56:56;;;;;;;;;;;15.10;99.90;;;;;;6245695;23;19954;-77
2022/08/20 03:59:21;;;;;;;;;;;15.00;99.90;;;;;;6245373;23;20286;-76
2022/08/20 04:01:47;;;;;;;;;;;15.00;99.90;;;;;;6219904;23;19962;-77
2022/08/20 04:04:13;;;;;;;;;;;15.00;99.90;;;;;;6245159;22;19975;-76
2022/08/20 04:06:39;;;;;;;;;;;14.90;99.90;;;;;;6219885;23;19916;-78
2022/08/20 04:09:05;;;;;;;;;;;14.80;99.90;;;;;;6220038;23;20003;-77
2022/08/20 04:11:32;;;;;;;;;;;14.80;99.90;;;;;;6219752;23;19915;-77
2022/08/20 04:13:57;;;;;;;;;;;14.70;99.90;;;;;;6194329;23;20323;-78
2022/08/20 04:16:23;;;;;;;;;;;14.70;99.90;;;;;;6220094;23;19919;-76
2022/08/20 04:18:49;;;;;;;;;;;14.70;99.90;;;;;;6219724;23;19915;-77
2022/08/20 04:21:15;;;;;;;;;;;14.70;99.90;;;;;;6219414;23;19961;-77
2022/08/20 04:23:40;;;;;;;;;;;14.60;99.90;;;;;;6244756;22;19969;-78
2022/08/20 04:26:06;;;;;;;;;;;14.60;99.90;;;;;;6220090;23;19920;-76
2022/08/20 04:28:32;;;;;;;;;;;14.60;99.90;;;;;;6220190;23;19998;-78
2022/08/20 04:30:58;;;;;;;;;;;14.50;99.90;;;;;;6219915;23;19922;-77
2022/08/20 04:33:25;;;;;;;;;;;14.50;99.90;;;;;;6219739;23;20257;-76
2022/08/20 04:35:52;;;;;;;;;;;14.50;99.90;;;;;;6219847;23;20292;-78
2022/08/20 04:38:18;;;;;;;;;;;14.50;99.90;;;;;;6194017;23;19994;-78
2022/08/20 04:40:53;;;;;;;;;;;14.50;99.90;;;;;;6244405;23;19927;-78
2022/08/20 04:43:19;;;;;;;;;;;14.50;99.90;;;;;;6219248;23;19920;-78
2022/08/20 04:45:45;;;;;;;;;;;14.40;99.90;;;;;;6219155;23;19916;-78
2022/08/20 04:48:11;;;;;;;;;;;14.40;99.90;;;;;;6219657;23;19915;-75
2022/08/20 04:50:38;;;;;;;;;;;14.40;99.90;;;;;;6220093;23;20030;-76
2022/08/20 04:53:05;;;;;;;;;;;14.40;99.90;;;;;;6245085;22;19923;-76
2022/08/20 04:55:30;;;;;;;;;;;14.30;99.90;;;;;;6220189;23;19916;-76
2022/08/20 04:58:03;;;;;;;;;;;14.30;99.90;;;;;;6220075;23;19922;-78
2022/08/20 05:00:30;;;;;;;;;;;14.30;99.90;;;;;;6220060;23;19998;-77
2022/08/20 05:02:56;;;;;;;;;;;14.30;99.90;;;;;;6219457;23;20294;-78
2022/08/20 05:05:21;;;;;;;;;;;14.30;99.90;;;;;;6244509;23;19916;-76
2022/08/20 05:07:47;;;;;;;;;;;14.40;99.90;;;;;;6245169;23;19916;-76
2022/08/20 05:10:14;;;;;;;;;;;14.40;99.90;;;;;;6245134;23;20361;-76
2022/08/20 05:12:40;;;;;;;;;;;14.40;99.90;;;;;;6219516;23;20382;-78
2022/08/20 05:15:06;;;;;;;;;;;14.40;99.90;;;;;;6244899;23;20254;-76
2022/08/20 05:17:32;;;;;;;;;;;14.40;99.90;;;;;;6244864;23;19923;-76
2022/08/20 05:19:59;;;;;;;;;;;14.40;99.90;;;;;;6219445;23;19915;-77
2022/08/20 05:22:26;;;;;;;;;;;14.40;99.90;;;;;;6219144;22;19915;-77
2022/08/20 05:24:52;;;;;;;;;;;14.40;99.90;;;;;;6194602;23;20318;-77
2022/08/20 05:27:18;;;;;;;;;;;14.40;99.90;;;;;;6245234;23;19915;-76
2022/08/20 05:29:44;;;;;;;;;;;14.40;99.90;;;;;;6221703;23;20345;-79
2022/08/20 05:32:11;;;;;;;;;;;14.50;99.90;;;;;;6247139;23;19916;-76
2022/08/20 05:34:39;;;;;;;;;;;14.60;99.90;;;;;;6221310;23;19915;-78
2022/08/20 05:37:06;;;;;;;;;;;14.70;99.90;;;;;;6196139;23;19916;-75
2022/08/20 05:39:50;;;;;;;;;;;14.80;99.90;;;;;;6246023;23;20226;-74
2022/08/20 05:42:32;;;;;;;;;;;14.90;99.90;;;;;;6220786;22;20006;-74
2022/08/20 05:45:28;;;;;;;;;;;;;;;;;;;;;
2022/08/20 05:48:34;;;;;;;;;;;15.10;99.90;;;;;;6247981;22;19916;-74
2022/08/20 05:51:16;;;;;;;;;;;15.30;99.90;;;;;;6221582;23;20324;-76
2022/08/20 06:00:54;;;;;;;;;;;15.70;99.90;;;;;;6209276;22;19986;-76
2022/08/20 06:06:08;;;;;;;;;;;15.90;99.90;;;;;;6246235;23;19935;-73
2022/08/20 06:08:37;;;;;;;;;;;16.00;99.90;;;;;;6220853;23;20250;-75
2022/08/20 06:11:03;;;;;;;;;;;16.10;99.90;;;;;;6245645;23;19915;-71
2022/08/20 06:13:28;;;;;;;;;;;16.20;99.90;;;;;;6245333;22;20216;-74
2022/08/20 06:15:55;;;;;;;;;;;16.40;99.90;;;;;;6246385;23;19926;-73
2022/08/20 06:18:21;;;;;;;;;;;16.60;99.90;;;;;;6248021;22;19924;-73
2022/08/20 06:20:47;;;;;;;;;;;16.80;99.90;;;;;;6220986;23;19920;-74
2022/08/20 06:23:12;;;;;;;;;;;17.00;99.90;;;;;;6245936;22;19969;-74
2022/08/20 06:25:38;;;;;;;;;;;17.00;99.90;;;;;;6246454;23;19926;-73
2022/08/20 06:28:04;;;;;;;;;;;17.00;99.90;;;;;;6221172;23;19923;-73
2022/08/20 06:30:30;;;;;;;;;;;17.10;99.90;;;;;;6246655;23;19959;-73
2022/08/20 06:32:56;;;;;;;;;;;17.30;99.90;;;;;;6245049;22;19920;-73
2022/08/20 06:35:21;;;;;;;;;;;17.60;99.90;;;;;;6219590;23;19970;-72
2022/08/20 06:37:47;;;;;;;;;;;17.80;99.90;;;;;;6220484;23;19926;-74
2022/08/20 06:40:21;;;;;;;;;;;18.10;99.90;;;;;;6219748;23;20388;-73
2022/08/20 06:42:48;;;;;;;;;;;18.40;99.90;;;;;;6245483;22;19919;-73
2022/08/20 06:45:15;;;;;;;;;;;18.70;99.90;;;;;;6246245;23;20330;-75
2022/08/20 06:47:42;;;;;;;;;;;18.90;99.90;;;;;;6220932;23;19942;-73
2022/08/20 06:50:09;;;;;;;;;;;19.20;99.90;;;;;;6220968;23;20246;-73
2022/08/20 06:52:36;;;;;;;;;;;19.40;99.90;;;;;;6220081;22;19924;-73
2022/08/20 06:55:02;;;;;;;;;;;19.70;99.90;;;;;;6245906;23;19919;-73
2022/08/20 06:57:28;;;;;;;;;;;19.90;99.90;;;;;;6220520;23;19991;-74
2022/08/20 06:59:54;;;;;;;;;;;20.10;99.90;;;;;;6221023;23;19954;-74
2022/08/20 07:02:19;;;;;;;;;;;20.20;99.90;;;;;;6220508;23;19920;-72
2022/08/20 07:04:45;;;;;;;;;;;20.40;99.90;;;;;;6246015;23;19923;-74
2022/08/20 07:07:15;;;;;;;;;;;20.60;99.90;;;;;;6220666;23;19969;-73
2022/08/20 07:09:40;;;;;;;;;;;20.80;99.90;;;;;;6246001;23;19927;-73
2022/08/20 07:12:09;;;;;;;;;;;21.00;99.90;;;;;;6220619;23;20250;-73
2022/08/20 07:14:34;;;;;;;;;;;21.10;99.90;;;;;;6245763;22;20256;-73
2022/08/20 07:17:04;;;;;;;;;;;21.30;99.90;;;;;;6245953;23;19920;-73
2022/08/20 07:19:30;;;;;;;;;;;21.50;99.90;;;;;;6220530;23;19927;-74
2022/08/20 07:21:56;;;;;;;;;;;21.60;99.90;;;;;;6220369;23;19916;-73
2022/08/20 07:24:21;;;;;;;;;;;21.80;99.90;;;;;;6220284;23;19916;-73
2022/08/20 07:26:53;;;;;;;;;;;22.00;99.90;;;;;;6245203;23;19973;-77
2022/08/20 07:29:19;;;;;;;;;;;22.00;99.90;;;;;;6245783;23;19994;-75
2022/08/20 07:34:30;;;;;;;;;;;22.50;99.90;;;;;;6245284;22;19920;-74
2022/08/20 07:37:04;;;;;;;;;;;22.60;99.90;;;;;;6245445;23;19926;-76
2022/08/20 07:39:34;;;;;;;;;;;22.70;99.90;;;;;;6246769;22;20326;-76
2022/08/20 07:42:06;;;;;;;;;;;22.80;99.90;;;;;;6245489;23;19929;-77
2022/08/20 07:44:37;;;;;;;;;;;23.00;99.90;;;;;;6244921;22;20376;-76
2022/08/20 07:47:05;;;;;;;;;;;23.10;99.90;;;;;;6220497;23;19923;-76
2022/08/20 07:49:42;;;;;;;;;;;23.10;99.90;;;;;;6220695;23;19915;-78
2022/08/20 07:52:08;;;;;;;;;;;23.30;99.90;;;;;;6245260;23;20326;-76
2022/08/20 08:01:31;;;;;;;;;;;23.30;99.90;;;;;;6211466;22;19919;-78
2022/08/20 08:07:15;;;;;;;;;;;23.80;99.90;;;;;;6244007;23;20006;-75
2022/08/20 08:09:42;;;;;;;;;;;23.80;99.90;;;;;;6218266;23;20326;-81
2022/08/20 08:12:10;;;;;;;;;;;23.80;99.90;;;;;;6218589;23;19922;-76
2022/08/20 08:14:37;;;;;;;;;;;23.70;99.90;;;;;;6218640;23;19915;-78
2022/08/20 08:17:18;;;;;;;;;;;23.70;99.90;;;;;;6218969;23;19915;-79
2022/08/20 08:19:48;;;;;;;;;;;23.80;99.90;;;;;;6228635;22;19938;-73
2022/08/20 08:22:15;;;;;;;;;;;23.90;99.90;;;;;;6243341;23;19919;-74
2022/08/20 08:25:14;;;;;;;;;;;24.00;99.90;;;;;;6218144;23;19998;-81
2022/08/20 08:27:41;;;;;;;;;;;24.00;99.90;;;;;;6163992;23;19923;-77
2022/08/20 08:30:08;;;;;;;;;;;24.10;99.90;;;;;;6218785;23;19916;-72
2022/08/20 08:32:34;;;;;;;;;;;24.10;99.90;;;;;;6243498;22;19919;-74
2022/08/20 08:41:56;;;;;;;;;;;24.30;99.90;;;;;;6181536;23;19916;-79
2022/08/20 08:47:51;;;;;;;;;;;24.50;99.90;;;;;;6139502;23;19927;-79
2022/08/20 08:50:59;;;;;;;;;;;24.50;99.90;;;;;;6242718;23;19919;-79
2022/08/20 09:00:32;;;;;;;;;;;24.00;98.90;;;;;;6193561;23;19915;-78
2022/08/20 09:03:25;;;;;;;;;;;24.20;99.20;;;;;;6225559;22;20327;-80
2022/08/20 09:06:08;;;;;;;;;;;;;;;;;;;;;
2022/08/20 09:08:43;;;;;;;;;;;24.40;99.70;;;;;;6244955;23;19916;-78
2022/08/20 09:21:17;;;;;;;;;;;23.90;99.90;;;;;;6216474;23;19914;-81
2022/08/20 09:23:43;;;;;;;;;;;24.20;99.90;;;;;;6245599;22;20227;-75
2022/08/20 09:26:09;;;;;;;;;;;24.50;99.90;;;;;;6245771;23;20395;-77
2022/08/20 09:35:22;;;;;;;;;;;24.10;99.50;;;;;;6242233;22;19951;-71
2022/08/20 09:44:37;;;;;;;;;;;24.00;98.30;;;;;;6244292;22;19954;-73
2022/08/20 09:47:28;;;;;;;;;;;24.10;98.20;;;;;;6213228;23;19966;-72
2022/08/20 09:49:53;;;;;;;;;;;24.30;97.90;;;;;;6213823;23;20341;-70
2022/08/20 09:52:24;;;;;;;;;;;24.60;96.50;;;;;;6213389;23;19951;-75
2022/08/20 09:54:51;;;;;;;;;;;24.70;97.30;;;;;;6188247;23;19916;-72
2022/08/20 09:57:17;;;;;;;;;;;24.50;95.20;;;;;;6163638;23;19915;-75
2022/08/20 09:59:43;;;;;;;;;;;24.80;95.80;;;;;;6188475;23;19967;-72
2022/08/20 10:02:31;;;;;;;;;;;24.80;94.60;;;;;;6189235;23;19916;-77
2022/08/20 10:05:05;;;;;;;;;;;24.80;94.50;;;;;;6165916;23;19924;-77
2022/08/20 10:07:49;;;;;;;;;;;24.90;94.50;;;;;;6191036;23;19948;-81
2022/08/20 10:10:14;;;;;;;;;;;25.10;93.70;;;;;;6163747;23;19954;-77
2022/08/20 10:26:22;;;;;;;;;;;25.40;93.00;;;;;;6065831;23;19916;-82
2022/08/20 10:28:51;;;;;;;;;;;25.60;93.80;;;;;;6099646;23;19963;-78
2022/08/20 10:31:16;;;;;;;;;;;25.80;93.40;;;;;;6099453;23;19976;-79
2022/08/20 10:37:43;;;;;;;;;;;25.70;91.80;;;;;;6215966;23;19951;-76
2022/08/20 10:40:17;;;;;;;;;;;25.70;90.10;;;;;;6216212;23;19926;-72
2022/08/20 10:46:08;;;;;;;;;;;25.50;90.80;;;;;;6214434;23;19918;-81
2022/08/20 10:48:44;;;;;;;;;;;25.40;92.00;;;;;;6189665;23;20331;-82
2022/08/20 10:51:17;;;;;;;;;;;25.30;91.90;;;;;;6190646;23;20254;-71
2022/08/20 10:53:42;;;;;;;;;;;25.20;92.60;;;;;;6213643;23;19994;-73
2022/08/20 10:56:22;;;;;;;;;;;25.30;92.90;;;;;;6214450;23;19923;-82
2022/08/20 11:02:02;;;;;;;;;;;25.30;91.40;;;;;;6214272;23;19920;-81
2022/08/20 11:04:41;;;;;;;;;;;25.50;90.90;;;;;;6189798;23;19916;-81
2022/08/20 11:07:35;;;;;;;;;;;25.50;87.80;;;;;;6214194;23;19924;-78
2022/08/20 11:10:01;;;;;;;;;;;25.50;89.00;;;;;;6189248;23;20323;-81
2022/08/20 11:15:42;;;;;;;;;;;25.10;90.00;;;;;;6210133;23;19923;-77
2022/08/20 11:18:08;;;;;;;;;;;25.20;89.60;;;;;;6189692;23;19916;-77
2022/08/20 11:20:34;;;;;;;;;;;25.30;87.60;;;;;;6189131;23;19951;-76
2022/08/20 11:23:01;;;;;;;;;;;25.30;87.20;;;;;;6188751;23;19942;-77
2022/08/20 11:25:45;;;;;;;;;;;25.40;90.20;;;;;;6188261;23;19920;-78
2022/08/20 11:28:13;;;;;;;;;;;25.60;90.60;;;;;;6189775;23;20243;-76
2022/08/20 11:30:49;;;;;;;;;;;;;;;;;;;;;
2022/08/20 11:36:43;;;;;;;;;;;25.70;88.10;;;;;;6215469;23;20289;-77
2022/08/20 11:39:09;;;;;;;;;;;25.50;87.00;;;;;;6213847;23;20342;-79
2022/08/20 11:41:47;;;;;;;;;;;25.50;89.90;;;;;;6213508;23;19998;-78
2022/08/20 11:44:13;;;;;;;;;;;25.20;88.20;;;;;;6213252;23;19922;-77
2022/08/20 11:50:29;;;;;;;;;;;25.20;89.20;;;;;;6214951;23;19919;-80
2022/08/20 11:52:55;;;;;;;;;;;25.40;88.40;;;;;;6187744;23;19926;-70
2022/08/20 11:55:21;;;;;;;;;;;25.70;89.80;;;;;;6213030;23;20330;-71
2022/08/20 11:57:49;;;;;;;;;;;25.70;87.10;;;;;;6188001;23;20103;-70
2022/08/20 12:00:20;;;;;;;;;;;25.80;85.80;;;;;;6187441;23;19984;-72
2022/08/20 12:02:46;;;;;;;;;;;25.90;86.90;;;;;;6211727;23;19920;-69
2022/08/20 12:05:17;;;;;;;;;;;26.00;89.60;;;;;;6214191;23;19983;-72
2022/08/20 12:07:43;;;;;;;;;;;25.90;88.40;;;;;;6213404;23;19966;-72
2022/08/20 12:10:25;;;;;;;;;;;25.80;87.00;;;;;;6213297;23;19920;-79
2022/08/20 12:13:14;;;;;;;;;;;25.60;86.20;;;;;;6188696;23;20380;-76
2022/08/20 12:18:52;;;;;;;;;;;25.50;85.90;;;;;;6212994;23;19930;-76
2022/08/20 12:24:36;;;;;;;;;;;25.30;89.30;;;;;;6212586;23;19962;-75
2022/08/20 12:28:08;;;;;;;;;;;;;;;;;;;;;
2022/08/20 12:34:19;;;;;;;;;;;25.10;85.10;;;;;;6035148;23;19966;-75
2022/08/20 12:37:14;;;;;;;;;;;25.00;83.50;;;;;;6017209;23;19917;-77
2022/08/20 12:43:27;;;;;;;;;;;25.10;85.20;;;;;;6038305;23;19925;-80
2022/08/20 12:46:28;;;;;;;;;;;25.20;84.10;;;;;;5992580;23;19949;-80
2022/08/20 12:49:22;;;;;;;;;;;25.20;80.10;;;;;;6094427;23;19928;-81
2022/08/20 12:51:48;;;;;;;;;;;25.00;81.10;;;;;;6103719;23;20064;-80
2022/08/20 12:54:38;;;;;;;;;;;24.80;82.20;;;;;;6145815;23;19916;-80
2022/08/20 13:00:26;;;;;;;;;;;25.00;80.70;;;;;;6219718;23;19956;-81
2022/08/20 13:02:53;;;;;;;;;;;25.20;81.40;;;;;;6190505;23;19927;-80
2022/08/20 13:05:35;;;;;;;;;;;25.30;84.80;;;;;;6215967;23;19916;-81
2022/08/20 13:08:10;;;;;;;;;;;25.40;83.40;;;;;;6212152;23;20283;-79
2022/08/20 13:10:51;;;;;;;;;;;25.30;83.90;;;;;;6216182;23;19916;-81
2022/08/20 13:13:26;;;;;;;;;;;25.30;81.90;;;;;;6191463;23;19950;-80
2022/08/20 13:16:08;;;;;;;;;;;25.50;82.80;;;;;;6216662;23;19923;-78
2022/08/20 21:47:55;;;;;;;;;;;16.00;99.90;;;;;;6246027;23;19915;-70
2022/08/20 21:50:27;;;;;;;;;;;15.90;99.90;;;;;;6127853;23;19948;-78
2022/08/20 21:53:23;;;;;;;;;;;15.90;99.90;;;;;;6138566;23;19907;-80
2022/08/20 21:55:49;;;;;;;;;;;15.90;99.90;;;;;;6147583;23;19917;-78
2022/08/20 21:58:47;;;;;;;;;;;15.90;99.90;;;;;;6128871;23;19996;-79
2022/08/20 22:36:37;;;;;;;;;;;15.60;99.90;;;;;;5116065;27;20384;-75
2022/08/20 22:39:03;;;;;;;;;;;15.50;99.90;;;;;;5064635;28;20269;-74
2022/08/20 22:44:35;;;;;;;;;;;15.50;99.90;;;;;;5102270;28;20007;-78
2022/08/20 22:47:11;;;;;;;;;;;15.50;99.90;;;;;;5062620;28;20001;-74
2022/08/20 22:49:45;;;;;;;;;;;15.40;99.90;;;;;;5090544;28;19927;-75
2022/08/20 22:52:19;;;;;;;;;;;15.40;99.90;;;;;;5087821;28;20011;-74
2022/08/20 22:54:48;;;;;;;;;;;15.40;99.90;;;;;;5082500;28;19923;-73
2022/08/20 22:57:13;;;;;;;;;;;15.30;99.90;;;;;;5079905;28;19920;-75
2022/08/20 22:59:42;;;;;;;;;;;15.30;99.90;;;;;;5066500;28;20372;-73
2022/08/20 23:05:24;;;;;;;;;;;15.30;99.90;;;;;;5097671;28;19920;-73
2022/08/20 23:07:56;;;;;;;;;;;15.30;99.90;;;;;;5079617;28;20363;-74
2022/08/20 23:10:45;;;;;;;;;;;;;;;;;;;;;
2022/08/20 23:13:14;;;;;;;;;;;15.20;99.90;;;;;;5088591;28;20014;-73
2022/08/20 23:15:43;;;;;;;;;;;15.20;99.90;;;;;;5109205;28;19924;-73
2022/08/20 23:18:10;;;;;;;;;;;15.20;99.90;;;;;;5094612;28;19928;-72
2022/08/20 23:20:39;;;;;;;;;;;15.20;99.90;;;;;;5073853;28;19946;-73
2022/08/20 23:23:07;;;;;;;;;;;15.10;99.90;;;;;;5093758;28;19999;-72
2022/08/20 23:25:33;;;;;;;;;;;15.10;99.90;;;;;;5090515;28;19968;-72
2022/08/20 23:28:08;;;;;;;;;;;15.20;99.90;;;;;;5085859;28;19920;-76
